createdAt,value
2023-04-04T00:01:39.180Z,1.63
2023-04-04T00:06:45.856Z,1.63
2023-04-04T00:11:49.313Z,1.43
2023-04-04T00:16:52.673Z,1.20
2023-04-04T00:21:57.531Z,1.53
2023-04-04T00:27:00.937Z,1.40
2023-04-04T00:32:04.381Z,1.37
2023-04-04T00:37:12.314Z,1.07
2023-04-04T00:42:15.771Z,1.40
2023-04-04T00:47:19.146Z,1.20
2023-04-04T00:52:23.920Z,1.30
2023-04-04T00:57:28.921Z,1.10
2023-04-04T01:02:32.411Z,1.40
2023-04-04T01:07:37.710Z,1.30
2023-04-04T01:12:42.809Z,1.33
2023-04-04T01:17:46.370Z,1.40
2023-04-04T01:22:52.954Z,1.50
2023-04-04T01:27:57.601Z,1.40
2023-04-04T01:33:08.525Z,1.50
2023-04-04T01:38:19.401Z,1.80
2023-04-04T01:43:24.213Z,1.27
2023-04-04T01:48:28.026Z,1.80
2023-04-04T01:53:31.397Z,1.30
2023-04-04T01:58:36.154Z,1.60
2023-04-04T02:03:39.520Z,1.80
2023-04-04T02:08:43.387Z,1.60
2023-04-04T02:13:48.547Z,1.50
2023-04-04T02:18:51.919Z,1.33
2023-04-04T02:23:55.386Z,1.90
2023-04-04T02:29:00.570Z,1.90
2023-04-04T02:34:04.327Z,1.70
2023-04-04T02:39:07.677Z,1.97
2023-04-04T02:44:12.481Z,1.53
2023-04-04T02:49:15.790Z,1.57
2023-04-04T02:54:19.067Z,1.60
2023-04-04T02:59:23.774Z,1.80
2023-04-04T03:04:27.366Z,1.50
2023-04-04T03:09:30.578Z,1.63
2023-04-04T03:14:35.278Z,1.80
2023-04-04T03:19:38.622Z,1.97
2023-04-04T03:24:41.845Z,2.03
2023-04-04T03:29:46.518Z,1.70
2023-04-04T03:34:49.828Z,1.97
2023-04-04T03:39:53.110Z,1.40
2023-04-04T03:44:57.758Z,1.80
2023-04-04T03:50:01.242Z,1.93
2023-04-04T03:55:04.546Z,1.63
2023-04-04T04:00:11.851Z,1.60
2023-04-04T04:05:15.281Z,1.90
2023-04-04T04:10:18.527Z,2.07
2023-04-04T04:15:23.292Z,1.77
2023-04-04T04:20:26.644Z,2.00
2023-04-04T04:25:30.038Z,2.10
2023-04-04T04:30:34.869Z,2.30
2023-04-04T04:35:39.144Z,3.23
2023-04-04T04:40:43.069Z,2.40
2023-04-04T04:45:47.786Z,2.30
2023-04-04T04:50:51.374Z,2.00
2023-04-04T04:55:54.746Z,2.00
2023-04-04T05:00:59.424Z,1.80
2023-04-04T05:06:02.812Z,2.20
2023-04-04T05:11:06.124Z,2.60
2023-04-04T05:16:11.088Z,2.30
2023-04-04T05:21:14.418Z,2.43
2023-04-04T05:26:17.834Z,2.30
2023-04-04T05:31:22.690Z,2.50
2023-04-04T05:36:26.108Z,2.27
2023-04-04T05:41:29.464Z,3.20
2023-04-04T05:46:34.196Z,2.53
2023-04-04T05:51:38.504Z,2.37
2023-04-04T05:56:41.949Z,2.27
2023-04-04T06:01:47.651Z,2.77
2023-04-04T06:06:53.565Z,2.33
2023-04-04T06:11:58.361Z,2.47
2023-04-04T06:17:09.849Z,2.20
2023-04-04T06:22:13.102Z,2.20
2023-04-04T06:27:16.627Z,2.60
2023-04-04T06:32:24.352Z,2.47
2023-04-04T06:37:27.793Z,2.30
2023-04-04T06:42:31.913Z,1.50
2023-04-04T06:47:38.944Z,1.73
2023-04-04T06:52:42.479Z,1.52
2023-04-04T06:57:46.857Z,1.35
2023-04-04T07:02:51.676Z,1.20
2023-04-04T07:07:58.405Z,1.67
2023-04-04T07:13:01.730Z,2.28
2023-04-04T07:18:06.435Z,1.52
2023-04-04T07:23:14.086Z,1.50
2023-04-04T07:28:17.463Z,3.67
2023-04-04T07:33:22.115Z,2.10
2023-04-04T07:38:25.453Z,1.40
2023-04-04T07:43:33.002Z,1.50
2023-04-04T07:48:37.681Z,1.30
2023-04-04T07:53:46.771Z,2.70
2023-04-04T07:58:52.389Z,1.77
2023-04-04T08:03:57.173Z,1.70
2023-04-04T08:09:02.654Z,1.80
2023-04-04T08:14:06.217Z,1.40
2023-04-04T08:19:12.617Z,1.63
2023-04-04T08:24:15.891Z,1.88
2023-04-04T08:29:21.291Z,1.50
2023-04-04T08:34:25.948Z,2.00
2023-04-04T08:39:29.184Z,1.88
2023-04-04T08:44:34.673Z,2.00
2023-04-04T08:49:44.039Z,1.55
2023-04-04T08:54:49.291Z,2.55
2023-04-04T08:59:54.224Z,1.85
2023-04-04T09:05:06.437Z,1.77
2023-04-04T09:10:17.284Z,1.20
2023-04-04T09:15:21.770Z,1.35
2023-04-04T09:20:42.906Z,1.77
2023-04-04T09:31:00.021Z,1.75
2023-04-04T09:36:10.366Z,1.80
2023-04-04T09:41:16.645Z,1.80
2023-04-04T09:46:22.935Z,1.55
2023-04-04T09:51:35.900Z,1.65
2023-04-04T09:56:40.286Z,1.20
2023-04-04T10:01:45.704Z,1.70
2023-04-04T10:06:57.415Z,1.60
2023-04-04T10:12:15.045Z,1.88
2023-04-04T10:17:18.633Z,1.65
2023-04-04T10:22:24.302Z,1.70
2023-04-04T10:27:27.989Z,1.55
2023-04-04T10:32:44.066Z,1.77
2023-04-04T10:37:56.810Z,1.67
2023-04-04T10:48:32.940Z,1.65
2023-04-04T10:53:41.696Z,1.85
2023-04-04T10:58:51.529Z,1.88
2023-04-04T11:04:20.341Z,1.50
2023-04-04T11:09:50.834Z,1.75
2023-04-04T11:15:16.461Z,2.25
2023-04-04T11:25:59.593Z,1.60
2023-04-04T11:31:26.883Z,1.65
2023-04-04T11:36:54.845Z,1.60
2023-04-04T11:42:08.321Z,1.55
2023-04-04T11:47:13.740Z,1.92
2023-04-04T11:52:18.869Z,1.83
2023-04-04T11:57:23.604Z,1.70
2023-04-04T12:02:32.177Z,1.52
2023-04-04T12:07:37.163Z,1.73
2023-04-04T12:12:42.933Z,1.70
2023-04-04T12:17:49.191Z,1.80
2023-04-04T12:22:55.972Z,1.92
2023-04-04T12:28:02.006Z,1.60
2023-04-04T12:33:05.975Z,1.63
2023-04-04T12:38:10.926Z,1.65
2023-04-04T12:43:20.859Z,1.85
2023-04-04T12:48:34.295Z,1.90
2023-04-04T12:53:52.288Z,2.20
2023-04-04T12:59:03.838Z,1.67
2023-04-04T13:04:10.005Z,2.00
2023-04-04T13:09:19.216Z,2.03
2023-04-04T13:14:26.671Z,1.70
2023-04-04T13:19:30.716Z,1.90
2023-04-04T13:24:33.962Z,1.48
2023-04-04T13:29:39.035Z,1.73
2023-04-04T13:34:42.703Z,1.50
2023-04-04T13:39:49.970Z,2.05
2023-04-04T13:44:54.585Z,1.70
2023-04-04T13:49:57.963Z,1.73
2023-04-04T13:55:02.437Z,1.58
2023-04-04T14:00:11.385Z,1.88
2023-04-04T14:05:14.806Z,2.20
2023-04-04T14:10:18.285Z,1.73
2023-04-04T14:15:24.998Z,2.22
2023-04-04T14:20:28.607Z,1.65
2023-04-04T14:25:32.057Z,1.90
2023-04-04T14:30:41.014Z,1.83
2023-04-04T14:35:44.344Z,1.60
2023-04-04T14:40:49.482Z,1.48
2023-04-04T14:45:57.508Z,1.75
2023-04-04T14:51:00.908Z,2.22
2023-04-04T14:56:04.772Z,2.72
2023-04-04T15:01:12.406Z,1.60
2023-04-04T15:06:16.225Z,1.60
2023-04-04T15:11:23.252Z,2.03
2023-04-04T15:16:30.216Z,1.80
2023-04-04T15:21:34.126Z,1.70
2023-04-04T15:26:43.176Z,1.80
2023-04-04T15:31:50.826Z,1.85
2023-04-04T15:36:54.445Z,1.58
2023-04-04T15:42:03.162Z,1.75
2023-04-04T15:47:07.939Z,1.80
2023-04-04T15:52:12.127Z,1.98
2023-04-04T15:57:15.416Z,2.13
2023-04-04T16:02:21.048Z,2.80
2023-04-04T16:07:24.439Z,1.85
2023-04-04T16:12:28.212Z,1.95
2023-04-04T16:17:33.380Z,1.70
2023-04-04T16:22:36.729Z,1.88
2023-04-04T16:27:40.254Z,2.85
2023-04-04T16:32:46.658Z,2.13
2023-04-04T16:37:49.946Z,1.98
2023-04-04T16:42:53.480Z,1.73
2023-04-04T16:47:58.306Z,2.97
2023-04-04T16:53:03.449Z,2.63
2023-04-04T16:58:07.090Z,2.00
2023-04-04T17:03:12.083Z,1.70
2023-04-04T17:08:15.474Z,1.80
2023-04-04T17:13:20.054Z,2.00
2023-04-04T17:18:24.960Z,2.47
2023-04-04T17:23:30.276Z,2.03
2023-04-04T17:28:33.617Z,2.13
2023-04-04T17:33:38.203Z,2.10
2023-04-04T17:38:42.012Z,1.92
2023-04-04T17:43:45.743Z,2.13
2023-04-04T17:48:51.518Z,2.10
2023-04-04T17:53:55.168Z,2.15
2023-04-04T17:58:58.913Z,2.03
2023-04-04T18:04:05.182Z,2.13
2023-04-04T18:09:11.379Z,1.98
2023-04-04T18:14:16.167Z,1.77
2023-04-04T18:19:20.929Z,1.93
2023-04-04T18:24:26.221Z,2.60
2023-04-04T18:29:31.750Z,2.13
2023-04-04T18:34:36.448Z,2.10
2023-04-04T18:39:40.092Z,1.90
2023-04-04T18:44:43.614Z,2.20
2023-04-04T18:49:48.313Z,2.00
2023-04-04T18:54:52.889Z,1.80
2023-04-04T18:59:56.384Z,1.93
2023-04-04T19:05:04.699Z,1.93
2023-04-04T19:10:10.019Z,1.70
2023-04-04T19:15:13.411Z,1.80
2023-04-04T19:20:18.431Z,2.60
2023-04-04T19:25:23.527Z,3.33
2023-04-04T19:30:47.538Z,2.70
2023-04-04T19:35:59.170Z,2.70
2023-04-04T19:41:04.478Z,2.80
2023-04-04T19:46:10.986Z,3.67
2023-04-04T19:51:47.248Z,4.37
2023-04-04T19:56:52.952Z,4.80
2023-04-04T20:02:00.513Z,5.90
2023-04-04T20:07:04.425Z,5.83
2023-04-04T20:12:11.969Z,3.97
2023-04-04T20:17:19.924Z,3.10
2023-04-04T20:22:24.406Z,3.50
2023-04-04T20:27:29.433Z,2.90
2023-04-04T20:32:32.880Z,2.97
2023-04-04T20:37:37.018Z,3.03
2023-04-04T20:42:42.375Z,2.97
2023-04-04T20:47:47.708Z,6.07
2023-04-04T20:52:53.522Z,16.10
2023-04-04T20:58:00.345Z,24.47
2023-04-04T21:03:11.068Z,20.00
2023-04-04T21:08:39.859Z,11.93
2023-04-04T21:13:46.474Z,5.73
2023-04-04T21:18:49.756Z,3.47
2023-04-04T21:23:54.377Z,3.60
2023-04-04T21:29:00.497Z,3.80
2023-04-04T21:34:12.756Z,3.10
2023-04-04T21:39:21.831Z,3.10
2023-04-04T21:44:27.672Z,3.03
2023-04-04T21:49:31.037Z,3.40
2023-04-04T21:54:34.350Z,3.30
2023-04-04T21:59:40.843Z,4.17
2023-04-04T22:04:44.465Z,3.13
2023-04-04T22:09:47.753Z,3.80
2023-04-04T22:14:53.606Z,3.33
2023-04-04T22:19:59.958Z,3.43
2023-04-04T22:25:06.217Z,2.93
2023-04-04T22:30:14.924Z,3.60
2023-04-04T22:35:18.442Z,3.60
2023-04-04T22:40:22.396Z,3.53
2023-04-04T22:45:29.681Z,3.50
2023-04-04T22:50:35.466Z,3.90
2023-04-04T22:55:38.715Z,3.70
2023-04-04T23:00:43.914Z,3.57
2023-04-04T23:05:47.183Z,3.40
2023-04-04T23:10:50.544Z,3.70
2023-04-04T23:15:55.744Z,3.70
2023-04-04T23:21:01.379Z,4.30
2023-04-04T23:26:06.322Z,3.80
2023-04-04T23:31:11.016Z,4.33
2023-04-04T23:36:15.818Z,5.13
2023-04-04T23:41:19.161Z,4.07
2023-04-04T23:46:24.061Z,4.07
2023-04-04T23:51:30.375Z,3.70
2023-04-04T23:56:33.678Z,4.40
